EYPA

Palanga International Airport

Palanga, Lithuania
METAR EYPA 170552Z AUTO VRB02KT 8000 -SHRA BKN013/// BKN070/// 00/00 Q1010
Observed Flight Rules
Dec-17 @ 05:52 UTC (28 minutes ago) Marginal Visual Flight Rules
Wind Visibility Clouds Conditions
Variable at 2 knots 7,998 meters
  • Broken at 1,300' AGL
  • Broken at 7,000' AGL
  • Light Rain
Temperatures Readings
Current 0°C / 32°F
Dewpoint 0°C / 32°F
Humidity 100%
Altimeter 29.82" Hg
Pressure 1010 hPa
Elevation 10
METAR EYPA 170552Z AUTO VRB02KT 8000 -SHRA BKN013/// BKN070/// 00/00 Q1010
Observed Flight Rules
Dec-17 @ 05:52 UTC
(28 minutes ago)
MVFR
Wind Visibility
Variable at 2 knots 7,998 meters
Clouds
  • Broken at 1,300' AGL
  • Broken at 7,000' AGL
Conditions
  • Light Rain
Temperature Dewpoint
0°C / 32°F 0°C / 32°F
Humidity Altimeter Pressure
100% 29.82" Hg 1010 hPa